createdAt,value
2018-05-21T00:03:59.048Z,15.73
2018-05-21T00:09:02.201Z,20.83
2018-05-21T00:14:04.772Z,25.93
2018-05-21T00:19:07.583Z,21.23
2018-05-21T00:24:10.172Z,20.07
2018-05-21T00:29:15.416Z,27.40
2018-05-21T00:34:18.452Z,21.30
2018-05-21T00:39:21.257Z,22.13
2018-05-21T00:44:23.843Z,22.77
2018-05-21T00:49:27.032Z,25.70
2018-05-21T00:54:29.592Z,19.50
2018-05-21T00:59:32.927Z,22.10
2018-05-21T01:04:35.777Z,17.70
2018-05-21T01:09:40.907Z,15.53
2018-05-21T01:14:46.277Z,16.53
2018-05-21T01:19:48.859Z,18.60
2018-05-21T01:24:51.909Z,14.10
2018-05-21T01:29:54.937Z,13.80
2018-05-21T01:34:58.122Z,14.50
2018-05-21T01:40:02.440Z,13.87
2018-05-21T01:45:11.590Z,17.13
2018-05-21T01:50:14.741Z,12.83
2018-05-21T01:55:17.328Z,14.80
2018-05-21T02:00:19.925Z,18.57
2018-05-21T02:05:23.075Z,13.13
2018-05-21T02:10:26.421Z,13.77
2018-05-21T02:15:28.998Z,11.80
2018-05-21T02:20:32.363Z,11.93
2018-05-21T02:30:45.493Z,16.10
2018-05-21T02:35:51.533Z,13.17
2018-05-21T02:40:54.167Z,12.60
2018-05-21T02:45:58.111Z,11.83
2018-05-21T02:51:00.805Z,14.17
2018-05-21T02:56:04.150Z,13.70
2018-05-21T03:01:06.732Z,14.87
2018-05-21T03:06:09.285Z,19.77
2018-05-21T03:11:12.463Z,16.20
2018-05-21T03:16:15.614Z,17.60
2018-05-21T03:21:18.530Z,16.70
2018-05-21T03:26:21.908Z,16.93
2018-05-21T03:31:24.471Z,21.53
2018-05-21T03:36:27.050Z,13.87
2018-05-21T03:41:30.388Z,17.37
2018-05-21T03:46:32.963Z,17.83
2018-05-21T03:51:36.381Z,21.40
2018-05-21T03:56:40.014Z,20.17
2018-05-21T04:01:54.349Z,18.80
2018-05-21T04:06:57.742Z,18.37
2018-05-21T04:12:00.462Z,18.13
2018-05-21T04:17:02.949Z,14.20
2018-05-21T04:22:05.548Z,16.50
2018-05-21T04:27:08.109Z,14.93
2018-05-21T04:32:10.700Z,14.67
2018-05-21T04:37:13.281Z,19.00
2018-05-21T04:42:17.076Z,16.30
2018-05-21T04:47:19.665Z,16.33
2018-05-21T04:52:22.616Z,17.57
2018-05-21T04:57:25.970Z,17.20
2018-05-21T05:02:35.913Z,20.30
2018-05-21T05:07:39.253Z,21.10
2018-05-21T05:12:42.031Z,23.50
2018-05-21T05:17:46.590Z,25.33
2018-05-21T05:22:49.188Z,26.37
2018-05-21T05:27:54.480Z,24.67
2018-05-21T05:32:59.528Z,27.27
2018-05-21T05:38:06.094Z,24.30
2018-05-21T05:43:09.152Z,25.40
2018-05-21T05:48:12.049Z,25.10
2018-05-21T05:53:17.317Z,25.67
2018-05-21T05:58:20.470Z,24.97
2018-05-21T06:03:23.816Z,24.70
2018-05-21T06:08:26.388Z,22.23
2018-05-21T06:13:30.898Z,19.40
2018-05-21T06:18:33.515Z,20.97
2018-05-21T06:23:36.855Z,21.77
2018-05-21T06:28:39.422Z,21.43
2018-05-21T06:33:42.767Z,22.37
2018-05-21T06:38:45.773Z,18.47
2018-05-21T06:43:48.721Z,21.50
2018-05-21T06:48:51.969Z,23.57
2018-05-21T06:53:54.519Z,20.70
2018-05-21T06:58:57.085Z,17.10
2018-05-21T07:04:00.535Z,22.10
2018-05-21T07:09:03.452Z,16.10
2018-05-21T07:14:06.021Z,12.43
2018-05-21T07:19:08.613Z,14.87
2018-05-21T07:24:12.036Z,14.50
2018-05-21T07:29:14.602Z,16.40
2018-05-21T07:34:17.980Z,13.70
2018-05-21T07:39:20.880Z,11.20
2018-05-21T07:44:25.943Z,15.53
2018-05-21T07:49:28.518Z,17.53
2018-05-21T07:54:31.609Z,16.50
2018-05-21T07:59:34.201Z,16.30
2018-05-21T08:04:37.995Z,17.90
2018-05-21T08:09:40.923Z,17.10
2018-05-21T08:14:44.611Z,16.83
2018-05-21T08:19:47.365Z,17.10
2018-05-21T08:24:50.849Z,16.97
2018-05-21T08:29:53.907Z,17.73
2018-05-21T08:34:57.043Z,17.30
2018-05-21T08:39:59.649Z,17.70
2018-05-21T08:45:02.674Z,16.57
2018-05-21T08:50:06.025Z,16.93
2018-05-21T08:55:10.392Z,13.83
2018-05-21T09:00:14.165Z,9.70
2018-05-21T09:05:17.772Z,12.50
2018-05-21T09:10:20.402Z,14.57
2018-05-21T09:15:24.675Z,13.40
2018-05-21T09:20:27.288Z,11.57
2018-05-21T09:25:30.445Z,12.13
2018-05-21T09:30:35.978Z,11.37
2018-05-21T09:35:38.563Z,13.97
2018-05-21T09:40:41.636Z,14.43
2018-05-21T09:45:44.804Z,12.33
2018-05-21T09:50:47.714Z,10.03
2018-05-21T09:55:51.061Z,11.43
2018-05-21T10:00:55.578Z,11.10
2018-05-21T10:05:58.200Z,15.10
2018-05-21T10:11:02.783Z,13.63
2018-05-21T10:16:05.369Z,11.20
2018-05-21T10:21:08.823Z,8.63
2018-05-21T10:26:11.503Z,13.80
2018-05-21T10:31:14.005Z,12.57
2018-05-21T10:36:16.758Z,12.33
2018-05-21T10:41:20.089Z,12.53
2018-05-21T10:46:22.680Z,11.63
2018-05-21T10:51:25.863Z,16.13
2018-05-21T10:56:31.537Z,10.23
2018-05-21T11:01:38.247Z,20.43
2018-05-21T11:06:41.121Z,9.30
2018-05-21T11:11:47.040Z,14.43
2018-05-21T11:16:51.491Z,11.27
2018-05-21T11:21:54.400Z,13.77
2018-05-21T11:26:56.987Z,8.87
2018-05-21T11:32:00.418Z,8.80
2018-05-21T11:37:03.372Z,7.97
2018-05-21T11:42:06.230Z,9.97
2018-05-21T11:47:10.095Z,8.97
2018-05-21T11:52:13.798Z,7.20
2018-05-21T11:57:16.374Z,11.03
2018-05-21T12:02:18.960Z,6.03
2018-05-21T12:07:24.200Z,6.53
2018-05-21T12:12:26.776Z,5.67
2018-05-21T12:17:29.993Z,6.00
2018-05-21T12:22:32.555Z,5.00
2018-05-21T12:27:36.066Z,5.10
2018-05-21T12:32:45.400Z,4.37
2018-05-21T12:37:49.038Z,6.03
2018-05-21T12:42:51.621Z,4.10
2018-05-21T12:47:55.037Z,3.93
2018-05-21T12:52:58.411Z,3.30
2018-05-21T12:58:04.229Z,11.80
2018-05-21T13:03:07.565Z,3.67
2018-05-21T13:08:10.155Z,3.80
2018-05-21T13:13:13.049Z,3.23
2018-05-21T13:18:16.600Z,3.03
2018-05-21T13:23:19.198Z,2.30
2018-05-21T13:28:25.040Z,4.10
2018-05-21T13:33:28.162Z,2.13
2018-05-21T13:38:37.545Z,2.00
2018-05-21T13:43:40.131Z,2.60
2018-05-21T13:48:49.051Z,2.83
2018-05-21T13:53:52.380Z,3.87
2018-05-21T13:58:56.209Z,3.70
2018-05-21T14:03:59.440Z,2.70
2018-05-21T14:09:02.612Z,3.73
2018-05-21T14:14:05.203Z,2.87
2018-05-21T14:24:38.038Z,2.30
2018-05-21T14:29:41.459Z,2.47
2018-05-21T14:34:45.320Z,4.30
2018-05-21T14:39:47.904Z,1.80
2018-05-21T14:44:51.261Z,2.07
2018-05-21T14:49:54.438Z,1.90
2018-05-21T14:54:58.363Z,1.70
2018-05-21T15:00:01.054Z,3.33
2018-05-21T15:05:06.802Z,2.07
2018-05-21T15:15:21.503Z,2.00
2018-05-21T15:20:24.177Z,3.33
2018-05-21T15:25:27.869Z,1.80
2018-05-21T15:30:30.593Z,3.10
2018-05-21T15:35:33.781Z,2.23
2018-05-21T15:40:38.996Z,2.60
2018-05-21T15:45:41.877Z,2.17
2018-05-21T15:50:44.941Z,2.20
2018-05-21T15:55:47.796Z,3.83
2018-05-21T16:00:50.403Z,2.77
2018-05-21T16:05:52.993Z,2.63
2018-05-21T16:10:55.852Z,6.97
2018-05-21T16:15:58.884Z,2.03
2018-05-21T16:21:02.237Z,2.77
2018-05-21T16:26:04.840Z,2.40
2018-05-21T16:31:07.870Z,2.60
2018-05-21T16:36:10.817Z,3.00
2018-05-21T16:41:14.823Z,3.07
2018-05-21T16:46:17.456Z,2.90
2018-05-21T16:51:26.668Z,4.30
2018-05-21T16:56:30.085Z,7.13
2018-05-21T17:01:32.684Z,10.03
2018-05-21T17:06:35.265Z,30.70
2018-05-21T17:11:37.854Z,45.47
2018-05-21T17:16:40.457Z,6.10
2018-05-21T17:21:43.056Z,6.53
2018-05-21T17:26:46.286Z,8.03
2018-05-21T17:31:48.869Z,6.93
2018-05-21T17:36:51.443Z,3.43
2018-05-21T17:41:54.122Z,8.60
2018-05-21T17:46:58.650Z,9.03
2018-05-21T17:52:02.632Z,8.67
2018-05-21T17:57:05.205Z,5.53
2018-05-21T18:02:10.671Z,5.37
2018-05-21T18:07:13.563Z,6.60
2018-05-21T18:12:19.544Z,7.70
2018-05-21T18:17:23.467Z,4.47
2018-05-21T18:22:27.825Z,6.40
2018-05-21T18:27:30.408Z,3.63
2018-05-21T18:32:34.365Z,4.17
2018-05-21T18:37:36.966Z,3.57
2018-05-21T18:42:39.588Z,3.50
2018-05-21T18:47:43.326Z,5.20
2018-05-21T18:52:45.896Z,3.20
2018-05-21T18:57:48.770Z,3.77
2018-05-21T19:02:52.603Z,9.20
2018-05-21T19:07:55.197Z,5.63
2018-05-21T19:12:59.199Z,8.80
2018-05-21T19:18:01.804Z,4.03
2018-05-21T19:23:04.390Z,3.77
2018-05-21T19:28:07.624Z,3.10
2018-05-21T19:33:11.178Z,10.40
2018-05-21T19:38:14.913Z,4.23
2018-05-21T19:43:20.622Z,3.37
2018-05-21T19:48:25.857Z,9.27
2018-05-21T19:53:28.444Z,3.77
2018-05-21T19:58:31.018Z,3.63
2018-05-21T20:03:35.653Z,4.03
2018-05-21T20:08:43.218Z,4.17
2018-05-21T20:13:46.837Z,3.50
2018-05-21T20:18:50.041Z,3.77
2018-05-21T20:23:52.651Z,3.73
2018-05-21T20:28:55.923Z,14.20
2018-05-21T20:33:59.047Z,3.63
2018-05-21T20:39:01.614Z,3.17
2018-05-21T20:44:06.346Z,3.83
2018-05-21T20:49:09.730Z,3.93
2018-05-21T20:54:14.933Z,4.70
2018-05-21T20:59:17.535Z,6.10
2018-05-21T21:04:21.341Z,3.30
2018-05-21T21:09:24.818Z,4.87
2018-05-21T21:14:28.077Z,6.10
2018-05-21T21:19:31.422Z,3.40
2018-05-21T21:24:35.205Z,5.63
2018-05-21T21:29:38.549Z,6.40
2018-05-21T21:34:43.032Z,3.90
2018-05-21T21:39:45.613Z,4.27
2018-05-21T21:44:49.508Z,5.70
2018-05-21T21:49:52.092Z,4.80
2018-05-21T21:54:54.701Z,5.07
2018-05-21T21:59:57.286Z,6.77
2018-05-21T22:05:00.539Z,4.90
2018-05-21T22:10:03.884Z,4.13
2018-05-21T22:15:07.082Z,4.37
2018-05-21T22:20:09.653Z,5.70
2018-05-21T22:25:12.248Z,4.73
2018-05-21T22:30:14.818Z,5.50
2018-05-21T22:35:17.384Z,7.07
2018-05-21T22:40:19.964Z,8.00
2018-05-21T22:45:23.306Z,6.53
2018-05-21T22:50:29.000Z,6.97
2018-05-21T22:55:32.285Z,6.50
2018-05-21T23:00:35.492Z,5.57
2018-05-21T23:05:39.028Z,4.43
2018-05-21T23:10:42.255Z,4.33
2018-05-21T23:15:44.803Z,5.13
2018-05-21T23:20:48.373Z,5.63
2018-05-21T23:25:52.109Z,5.00
2018-05-21T23:30:56.521Z,5.93
2018-05-21T23:35:59.644Z,4.83
2018-05-21T23:41:02.204Z,7.20
2018-05-21T23:46:08.180Z,5.70
2018-05-21T23:51:12.293Z,5.03
2018-05-21T23:56:22.052Z,4.97
